Time;durP1;ratioP1;P1;durP2;ratioP2;P2;SDS_P1;SDS_P2;PMS_P1;PMS_P2;Temp;Humidity;BMP_temperature;BMP_pressure;BME280_temperature;BME280_humidity;BME280_pressure;Samples;Min_cycle;Max_cycle;Signal;HPM_P1;HPM_P2
2022/04/26 03:36:37;;;;;;;20.13;7.15;;;6.40;99.90;;;;;;5069134;28;20424;-79
2022/04/26 03:39:03;;;;;;;19.10;8.13;;;6.30;99.90;;;;;;5076495;28;20462;-80
2022/04/26 03:41:29;;;;;;;18.25;7.25;;;6.30;99.90;;;;;;5072130;28;20415;-79
2022/04/26 03:43:55;;;;;;;15.88;7.00;;;6.30;99.90;;;;;;5064432;28;20433;-79
2022/04/26 03:46:20;;;;;;;15.93;7.25;;;6.30;99.90;;;;;;5068170;28;20930;-79
2022/04/26 03:48:46;;;;;;;13.45;7.05;;;6.40;99.90;;;;;;5070393;28;20438;-80
2022/04/26 03:51:11;;;;;;;13.60;6.33;;;6.30;99.90;;;;;;5075448;28;20418;-80
2022/04/26 03:53:37;;;;;;;15.93;5.60;;;6.40;99.90;;;;;;5081615;28;21048;-79
2022/04/26 03:56:04;;;;;;;14.13;5.73;;;6.30;99.90;;;;;;5066250;28;20442;-79
2022/04/26 03:58:30;;;;;;;12.85;6.05;;;6.40;99.90;;;;;;5068521;28;20805;-79
2022/04/26 04:00:56;;;;;;;16.97;6.70;;;6.30;99.90;;;;;;5064210;28;20424;-79
2022/04/26 04:03:22;;;;;;;16.65;6.68;;;6.30;99.90;;;;;;5083586;28;20430;-78
2022/04/26 04:05:47;;;;;;;16.02;7.38;;;6.30;99.90;;;;;;5076539;28;20439;-78
2022/04/26 04:08:13;;;;;;;14.70;5.93;;;6.30;99.90;;;;;;5069075;28;20428;-79
2022/04/26 04:10:39;;;;;;;15.45;5.65;;;6.20;99.90;;;;;;5066220;28;20983;-79
2022/04/26 04:13:04;;;;;;;22.90;5.85;;;6.30;99.90;;;;;;5044199;28;20431;-80
2022/04/26 04:15:30;;;;;;;20.98;6.00;;;6.30;99.90;;;;;;5072948;28;20419;-79
2022/04/26 04:17:56;;;;;;;12.57;5.88;;;6.30;99.90;;;;;;5070568;28;20524;-79
2022/04/26 04:20:21;;;;;;;12.93;5.47;;;6.30;99.90;;;;;;5067124;28;20481;-79
2022/04/26 04:22:48;;;;;;;17.20;6.32;;;6.30;99.90;;;;;;5067907;28;20430;-79
2022/04/26 04:25:15;;;;;;;14.07;5.77;;;6.40;99.90;;;;;;5065662;28;20433;-79
2022/04/26 04:27:42;;;;;;;17.00;6.20;;;6.40;99.90;;;;;;5064644;28;20788;-78
2022/04/26 04:30:08;;;;;;;14.18;5.63;;;6.40;99.90;;;;;;5082127;28;20941;-79
2022/04/26 04:32:34;;;;;;;14.60;5.80;;;6.50;99.90;;;;;;5070398;28;20781;-79
2022/04/26 04:35:00;;;;;;;15.13;4.95;;;6.40;99.90;;;;;;5075458;28;20418;-78
2022/04/26 04:37:26;;;;;;;15.30;5.00;;;6.40;99.90;;;;;;5072592;28;20419;-78
2022/04/26 04:39:52;;;;;;;13.98;4.45;;;6.50;99.90;;;;;;5066126;28;20513;-77
2022/04/26 04:42:17;;;;;;;13.50;5.03;;;6.40;99.90;;;;;;5067039;28;20432;-79
2022/04/26 04:44:43;;;;;;;15.03;5.27;;;6.50;99.90;;;;;;5062693;28;20430;-78
2022/04/26 04:47:09;;;;;;;14.43;5.40;;;6.60;99.90;;;;;;5061838;28;20557;-78
2022/04/26 04:49:34;;;;;;;10.97;5.57;;;6.60;99.90;;;;;;5066235;28;20501;-77
2022/04/26 04:52:00;;;;;;;11.77;4.60;;;6.80;99.90;;;;;;5076977;28;20866;-79
2022/04/26 04:54:25;;;;;;;10.35;4.47;;;6.80;99.90;;;;;;5074525;28;20428;-79
2022/04/26 04:56:51;;;;;;;10.15;4.72;;;7.00;99.90;;;;;;5083796;28;20826;-77
2022/04/26 04:59:17;;;;;;;11.75;4.50;;;7.20;99.90;;;;;;5073131;28;20435;-77
2022/04/26 05:01:43;;;;;;;13.20;5.70;;;7.20;99.90;;;;;;5066929;28;20794;-79
2022/04/26 05:04:08;;;;;;;17.80;5.10;;;7.20;99.90;;;;;;5068119;28;20912;-78
2022/04/26 05:06:34;;;;;;;10.20;4.50;;;7.20;99.90;;;;;;5073467;28;20418;-78
2022/04/26 05:09:00;;;;;;;11.48;4.45;;;7.20;99.90;;;;;;5073920;28;20432;-79
2022/04/26 05:11:25;;;;;;;13.23;4.70;;;7.20;99.90;;;;;;5078222;28;20424;-77
2022/04/26 05:13:51;;;;;;;15.60;4.70;;;7.20;99.90;;;;;;5083821;28;20444;-78
2022/04/26 05:16:16;;;;;;;12.40;5.07;;;7.30;99.90;;;;;;5068944;28;20423;-77
2022/04/26 05:18:42;;;;;;;15.00;5.47;;;7.30;99.90;;;;;;5071969;28;20762;-77
2022/04/26 05:21:09;;;;;;;11.27;3.70;;;7.30;99.90;;;;;;5065129;28;20947;-77
2022/04/26 05:26:19;;;;;;;10.25;4.07;;;7.40;99.90;;;;;;5068305;28;20412;-78
2022/04/26 05:28:46;;;;;;;13.40;4.57;;;7.40;99.90;;;;;;5079878;28;20441;-78
2022/04/26 05:31:12;;;;;;;15.40;5.65;;;7.50;99.90;;;;;;5081095;28;20474;-78
2022/04/26 05:33:38;;;;;;;10.50;4.07;;;7.80;99.90;;;;;;5062540;28;20436;-78
2022/04/26 05:36:04;;;;;;;12.50;5.13;;;7.70;99.90;;;;;;5047036;28;20518;-78
2022/04/26 05:38:29;;;;;;;16.53;5.20;;;8.20;99.90;;;;;;5064546;28;20426;-78
2022/04/26 05:40:55;;;;;;;12.77;4.77;;;8.20;99.90;;;;;;5065962;28;20518;-79
2022/04/26 05:43:21;;;;;;;10.97;4.80;;;8.20;99.90;;;;;;5074393;28;20411;-78
2022/04/26 05:45:46;;;;;;;15.23;5.43;;;8.40;99.90;;;;;;5075470;28;20429;-78
2022/04/26 05:48:13;;;;;;;15.37;5.63;;;8.30;99.90;;;;;;5072414;28;20554;-80
2022/04/26 05:50:40;;;;;;;11.10;4.68;;;8.20;99.90;;;;;;5073323;28;20415;-78
2022/04/26 05:53:06;;;;;;;11.25;4.63;;;8.10;99.90;;;;;;5076669;28;20424;-78
2022/04/26 05:55:31;;;;;;;13.07;5.20;;;8.10;99.90;;;;;;5071598;28;20927;-77
2022/04/26 05:57:57;;;;;;;9.77;4.63;;;8.00;99.90;;;;;;5071519;28;20411;-77
2022/04/26 06:00:22;;;;;;;9.70;4.93;;;8.20;99.90;;;;;;5066675;28;20990;-77
2022/04/26 06:02:49;;;;;;;9.70;4.37;;;8.30;99.90;;;;;;5069127;28;20451;-78
2022/04/26 06:05:14;;;;;;;11.18;4.28;;;8.10;99.90;;;;;;5077781;28;20471;-78
2022/04/26 06:07:40;;;;;;;11.10;4.15;;;8.10;99.90;;;;;;5068845;28;20447;-78
2022/04/26 06:10:07;;;;;;;9.13;4.70;;;8.20;99.90;;;;;;5066769;28;20443;-77
2022/04/26 06:12:34;;;;;;;13.38;4.53;;;8.30;99.90;;;;;;5072047;28;20414;-78
2022/04/26 06:15:00;;;;;;;10.48;4.43;;;8.80;99.90;;;;;;5068858;28;20477;-77
2022/04/26 06:17:27;;;;;;;11.15;4.50;;;9.10;99.90;;;;;;5071273;28;20419;-78
2022/04/26 06:19:53;;;;;;;9.35;3.85;;;9.10;99.90;;;;;;5072046;28;20440;-76
2022/04/26 06:22:18;;;;;;;9.32;4.40;;;9.10;99.90;;;;;;5070778;28;20444;-77
2022/04/26 06:24:44;;;;;;;7.18;4.00;;;9.00;99.90;;;;;;5055083;28;20456;-77
2022/04/26 06:27:10;;;;;;;10.75;4.70;;;8.90;99.90;;;;;;5074093;28;20960;-78
2022/04/26 06:29:35;;;;;;;8.35;3.47;;;8.80;99.90;;;;;;5070420;28;20426;-76
2022/04/26 06:32:02;;;;;;;11.10;4.18;;;8.90;99.90;;;;;;5071826;28;20431;-76
2022/04/26 06:34:28;;;;;;;11.15;4.25;;;8.90;99.90;;;;;;5072057;28;20419;-76
2022/04/26 06:36:54;;;;;;;7.18;3.58;;;8.80;99.90;;;;;;5073413;28;20940;-76
2022/04/26 06:39:19;;;;;;;11.20;4.47;;;8.80;99.90;;;;;;5072681;28;20446;-76
2022/04/26 06:41:46;;;;;;;8.63;3.57;;;8.80;99.90;;;;;;5073375;28;20428;-75
2022/04/26 06:44:12;;;;;;;12.10;4.80;;;8.60;99.90;;;;;;5071012;28;20423;-74
2022/04/26 06:46:37;;;;;;;11.63;4.90;;;8.90;99.90;;;;;;5088946;28;20410;-77
2022/04/26 06:49:04;;;;;;;12.50;4.40;;;9.00;99.90;;;;;;5079706;28;20431;-81
2022/04/26 06:51:33;;;;;;;10.55;4.22;;;8.90;99.90;;;;;;5069209;28;20429;-81
2022/04/26 06:53:58;;;;;;;12.80;4.30;;;8.90;99.90;;;;;;5072454;28;20788;-81
2022/04/26 06:56:24;;;;;;;10.52;4.68;;;8.90;99.90;;;;;;5069463;28;20491;-79
2022/04/26 06:58:50;;;;;;;11.37;4.43;;;8.90;99.90;;;;;;5068750;28;20909;-80
2022/04/26 07:01:15;;;;;;;8.90;3.60;;;8.90;99.90;;;;;;5069353;28;20432;-80
2022/04/26 07:03:41;;;;;;;13.00;4.13;;;8.80;99.90;;;;;;5066732;28;20497;-81
2022/04/26 07:06:06;;;;;;;9.57;3.73;;;8.70;99.90;;;;;;5071686;28;20421;-80
2022/04/26 07:08:32;;;;;;;11.52;3.55;;;8.70;99.90;;;;;;5084647;28;20435;-80
2022/04/26 07:10:58;;;;;;;9.88;3.22;;;8.60;99.90;;;;;;5069750;28;20743;-81
2022/04/26 07:13:23;;;;;;;12.13;4.25;;;8.50;99.90;;;;;;5076262;28;20998;-81
2022/04/26 07:15:49;;;;;;;8.98;3.53;;;8.80;99.90;;;;;;5074218;28;20438;-80
2022/04/26 07:18:15;;;;;;;9.13;3.37;;;8.90;99.90;;;;;;5070330;28;20882;-77
2022/04/26 07:20:44;;;;;;;9.47;4.20;;;9.80;99.90;;;;;;5070115;28;20408;-78
2022/04/26 07:23:10;;;;;;;14.32;4.50;;;9.90;99.90;;;;;;5070511;28;20773;-76
2022/04/26 07:25:35;;;;;;;8.00;3.22;;;9.90;99.90;;;;;;5084821;28;20467;-76
2022/04/26 07:28:01;;;;;;;10.90;4.72;;;9.60;99.90;;;;;;5085902;28;20421;-76
2022/04/26 07:30:34;;;;;;;10.18;3.63;;;9.50;99.90;;;;;;5065920;28;20506;-77
2022/04/26 07:35:45;;;;;;;7.77;3.53;;;9.40;99.90;;;;;;5072488;28;20404;-77
2022/04/26 07:38:10;;;;;;;8.50;3.40;;;9.30;99.90;;;;;;5069544;28;20429;-77
2022/04/26 07:40:36;;;;;;;6.60;3.40;;;9.30;99.90;;;;;;5071155;28;20412;-75
2022/04/26 07:43:03;;;;;;;8.50;3.38;;;9.30;99.90;;;;;;5058855;28;20443;-77
2022/04/26 07:45:30;;;;;;;9.27;3.80;;;9.30;99.90;;;;;;5063741;28;20758;-78
2022/04/26 07:47:56;;;;;;;8.95;3.15;;;9.30;99.90;;;;;;5069713;28;20516;-77
2022/04/26 07:50:21;;;;;;;7.93;2.53;;;9.20;99.90;;;;;;5068558;28;20502;-79
2022/04/26 07:52:47;;;;;;;8.77;3.17;;;9.20;99.90;;;;;;5070318;28;20816;-77
2022/04/26 07:55:13;;;;;;;8.55;3.58;;;9.10;99.90;;;;;;5069918;28;20438;-76
2022/04/26 07:57:39;;;;;;;6.23;2.67;;;9.10;99.90;;;;;;5075477;28;20410;-76
2022/04/26 08:00:06;;;;;;;7.22;3.10;;;9.70;99.90;;;;;;5055424;28;20422;-77
2022/04/26 08:02:32;;;;;;;9.35;3.30;;;10.10;99.90;;;;;;5070119;28;20400;-77
2022/04/26 08:05:01;;;;;;;8.75;3.03;;;10.10;99.90;;;;;;5081384;28;20461;-75
2022/04/26 08:07:31;;;;;;;14.95;3.00;;;10.00;99.90;;;;;;5088505;28;20413;-76
2022/04/26 08:09:57;;;;;;;9.02;3.83;;;9.90;99.90;;;;;;5076098;28;20748;-89
2022/04/26 08:12:23;;;;;;;7.10;2.58;;;10.20;99.90;;;;;;5084008;28;20422;-76
2022/04/26 08:14:49;;;;;;;7.33;2.80;;;10.00;99.90;;;;;;5067758;28;20840;-78
2022/04/26 08:17:15;;;;;;;9.67;2.93;;;10.20;99.90;;;;;;5075846;28;20830;-78
2022/04/26 08:19:41;;;;;;;5.57;2.65;;;10.20;99.90;;;;;;5089390;28;20438;-78
2022/04/26 08:22:07;;;;;;;7.20;3.13;;;10.70;99.90;;;;;;5089752;28;20394;-77
2022/04/26 08:27:25;;;;;;;5.10;2.10;;;11.00;99.90;;;;;;5064683;28;20488;-76
2022/04/26 08:29:51;;;;;;;5.72;2.22;;;10.90;99.90;;;;;;5067627;28;20435;-77
2022/04/26 08:32:20;;;;;;;4.63;2.70;;;10.40;99.90;;;;;;5067498;28;20495;-77
2022/04/26 08:34:45;;;;;;;6.38;3.45;;;10.30;99.90;;;;;;5050313;28;20468;-77
2022/04/26 08:37:11;;;;;;;6.10;2.78;;;10.30;99.90;;;;;;5066015;28;20427;-78
2022/04/26 08:39:37;;;;;;;4.80;2.67;;;10.60;99.90;;;;;;5068217;28;20546;-77
2022/04/26 08:42:04;;;;;;;11.83;3.67;;;10.90;99.90;;;;;;5064148;28;20511;-76
2022/04/26 08:44:30;;;;;;;5.68;2.78;;;10.80;99.90;;;;;;5067778;28;20420;-77
2022/04/26 08:52:27;;;;;;;7.03;2.83;;;10.20;99.90;;;;;;5066250;28;21014;-74
2022/04/26 08:54:53;;;;;;;7.67;2.67;;;10.60;99.90;;;;;;5066329;28;20502;-73
2022/04/26 08:57:18;;;;;;;6.55;2.78;;;10.50;99.90;;;;;;5066235;28;21179;-74
2022/04/26 08:59:49;;;;;;;7.93;2.47;;;10.30;99.90;;;;;;5066323;28;20446;-74
2022/04/26 09:02:18;;;;;;;6.87;2.37;;;10.90;99.90;;;;;;5069714;28;20426;-74
2022/04/26 09:04:44;;;;;;;9.27;2.92;;;11.00;99.90;;;;;;5078922;28;20451;-74
2022/04/26 09:07:12;;;;;;;5.20;2.78;;;11.10;99.90;;;;;;5067807;28;20422;-74
2022/04/26 09:09:39;;;;;;;6.77;3.43;;;10.50;99.90;;;;;;5065606;28;20439;-82
2022/04/26 09:12:10;;;;;;;5.50;2.47;;;10.70;99.90;;;;;;5081953;28;20414;-78
2022/04/26 09:14:41;;;;;;;5.75;2.40;;;11.10;99.90;;;;;;5088129;28;20421;-79
2022/04/26 09:17:09;;;;;;;5.35;2.63;;;11.40;99.90;;;;;;5087986;28;20501;-76
2022/04/26 09:19:49;;;;;;;6.80;3.13;;;11.20;99.90;;;;;;5084574;28;20450;-76
2022/04/26 09:22:25;;;;;;;8.52;2.70;;;11.60;99.90;;;;;;5049076;28;20423;-76
2022/04/26 09:25:04;;;;;;;6.45;2.08;;;11.50;99.90;;;;;;5050497;28;20404;-75
2022/04/26 09:27:31;;;;;;;5.88;3.10;;;11.40;99.90;;;;;;5064825;28;20439;-77
2022/04/26 09:29:57;;;;;;;5.03;2.20;;;11.90;99.90;;;;;;5063813;28;20759;-76
2022/04/26 09:32:26;;;;;;;8.95;2.25;;;11.60;99.90;;;;;;5084501;28;20513;-76
2022/04/26 09:34:51;;;;;;;8.15;2.50;;;11.80;99.90;;;;;;5092588;28;20455;-76
2022/04/26 09:37:17;;;;;;;6.77;2.70;;;11.50;99.90;;;;;;5090717;28;20418;-76
2022/04/26 09:40:06;;;;;;;6.40;2.30;;;11.40;99.90;;;;;;5092710;28;20530;-77
2022/04/26 09:42:33;;;;;;;8.85;3.05;;;11.90;99.90;;;;;;5069093;28;20510;-77
2022/04/26 09:45:10;;;;;;;7.40;2.60;;;11.70;99.90;;;;;;5071010;28;21242;-76
2022/04/26 09:47:40;;;;;;;8.97;3.03;;;11.40;99.90;;;;;;5089380;28;20424;-76
2022/04/26 09:50:12;;;;;;;7.53;2.70;;;11.40;99.90;;;;;;5090805;28;21165;-74
2022/04/26 09:52:38;;;;;;;9.48;2.90;;;11.80;99.90;;;;;;5071493;28;20426;-74
2022/04/26 09:55:05;;;;;;;6.00;2.22;;;11.90;99.90;;;;;;5068519;28;20461;-74
2022/04/26 09:57:35;;;;;;;9.18;3.05;;;11.80;99.90;;;;;;5071674;28;20984;-74
2022/04/26 10:00:05;;;;;;;4.53;2.13;;;11.80;99.90;;;;;;5067695;28;20515;-74
2022/04/26 10:02:32;;;;;;;7.38;2.47;;;11.50;99.90;;;;;;5069729;28;20480;-74
2022/04/26 10:05:05;;;;;;;8.47;2.80;;;11.90;99.90;;;;;;5070388;28;20410;-72
2022/04/26 10:07:43;;;;;;;7.30;2.70;;;11.80;99.90;;;;;;5071399;28;20428;-72
2022/04/26 10:10:09;;;;;;;5.47;2.50;;;11.90;99.90;;;;;;5071679;28;20905;-76
2022/04/26 10:12:35;;;;;;;6.28;2.72;;;11.70;99.90;;;;;;5072487;28;20437;-74
2022/04/26 10:15:03;;;;;;;5.47;2.42;;;11.90;99.90;;;;;;5080419;28;20428;-73
2022/04/26 10:17:32;;;;;;;5.63;2.10;;;12.30;99.90;;;;;;5069227;28;20427;-75
2022/04/26 10:20:00;;;;;;;3.75;2.13;;;12.50;99.90;;;;;;5071375;28;20894;-73
2022/04/26 10:22:54;;;;;;;3.55;1.98;;;12.20;99.90;;;;;;5076545;28;20418;-73
2022/04/26 10:25:21;;;;;;;6.35;2.17;;;12.00;99.90;;;;;;5088293;28;20425;-75
2022/04/26 10:28:17;;;;;;;4.43;2.45;;;12.00;99.90;;;;;;5072987;28;20411;-73
2022/04/26 10:30:50;;;;;;;7.65;2.20;;;12.30;99.90;;;;;;5050332;28;20437;-74
2022/04/26 10:33:44;;;;;;;5.72;2.60;;;12.70;99.90;;;;;;5065018;28;20498;-74
2022/04/26 10:36:32;;;;;;;7.28;2.30;;;12.20;99.90;;;;;;5062675;28;20432;-75
2022/04/26 10:39:07;;;;;;;5.63;2.15;;;12.50;99.90;;;;;;5076826;28;20422;-74
2022/04/26 10:41:35;;;;;;;5.50;2.40;;;12.30;99.90;;;;;;5070282;28;20956;-74
2022/04/26 10:44:13;;;;;;;6.60;2.20;;;12.30;99.90;;;;;;5070265;28;20412;-74
2022/04/26 10:46:43;;;;;;;3.07;1.83;;;12.00;99.90;;;;;;5069494;28;20492;-76
2022/04/26 10:49:23;;;;;;;5.43;2.50;;;12.30;99.90;;;;;;5065094;28;20549;-76
2022/04/26 10:51:53;;;;;;;7.00;2.60;;;12.70;99.90;;;;;;5070745;28;20800;-73
2022/04/26 10:54:46;;;;;;;6.93;2.35;;;12.80;99.90;;;;;;5065279;28;20426;-72
2022/04/26 10:57:16;;;;;;;3.53;2.00;;;12.50;99.90;;;;;;5089698;28;20398;-74
2022/04/26 10:59:47;;;;;;;11.15;2.55;;;12.10;99.90;;;;;;5071092;28;20044;-75
2022/04/26 11:02:13;;;;;;;;;;;12.60;99.90;;;;;;5071652;28;20033;-74
2022/04/26 11:04:39;;;;;;;5.70;2.95;;;12.50;99.90;;;;;;5070473;28;20003;-76
2022/04/26 11:07:14;;;;;;;5.07;2.25;;;12.60;99.90;;;;;;5072291;28;20067;-75
2022/04/26 11:09:44;;;;;;;4.32;1.90;;;12.80;99.90;;;;;;5070635;28;20048;-75
2022/04/26 11:12:09;;;;;;;2.63;1.92;;;12.70;99.90;;;;;;5071760;28;20036;-74
2022/04/26 11:14:42;;;;;;;7.95;1.60;;;12.70;99.90;;;;;;5071224;28;20045;-74
2022/04/26 11:17:08;;;;;;;6.00;2.53;;;12.20;99.90;;;;;;5069560;28;20434;-74
2022/04/26 11:19:38;;;;;;;4.05;2.10;;;12.70;99.90;;;;;;5052887;28;20407;-75
2022/04/26 11:22:13;;;;;;;7.07;2.53;;;13.30;99.90;;;;;;5068295;28;20508;-74
2022/04/26 11:30:10;;;;;;;6.10;2.88;;;12.80;99.90;;;;;;5050051;28;20779;-74
2022/04/26 11:32:46;;;;;;;4.72;2.63;;;12.50;99.90;;;;;;5055656;28;20411;-73
2022/04/26 11:35:14;;;;;;;4.80;1.92;;;12.40;99.90;;;;;;5063634;28;20443;-73
2022/04/26 11:37:48;;;;;;;4.13;2.00;;;12.20;99.90;;;;;;5075152;28;20461;-73
2022/04/26 11:40:47;;;;;;;3.55;1.80;;;12.20;99.90;;;;;;5050503;28;20440;-72
2022/04/26 11:43:14;;;;;;;4.97;2.17;;;12.70;99.90;;;;;;5055087;28;20513;-74
2022/04/26 11:45:43;;;;;;;6.50;2.70;;;13.10;99.90;;;;;;5065065;28;20425;-74
2022/04/26 11:48:11;;;;;;;4.15;2.08;;;12.80;99.90;;;;;;5069514;28;20434;-77
2022/04/26 11:50:37;;;;;;;4.45;2.10;;;12.40;99.90;;;;;;5071738;28;20416;-74
2022/04/26 11:53:12;;;;;;;6.60;2.38;;;13.20;99.90;;;;;;5066968;28;20396;-75
2022/04/26 11:55:51;;;;;;;8.93;2.47;;;12.80;99.90;;;;;;5066581;28;20423;-76
2022/04/26 11:58:17;;;;;;;4.15;2.25;;;12.60;99.90;;;;;;5054776;28;20544;-75
2022/04/26 12:00:53;;;;;;;6.00;2.00;;;12.70;99.90;;;;;;5049269;28;20975;-73
2022/04/26 12:03:20;;;;;;;4.00;2.33;;;12.60;99.90;;;;;;5072649;28;20427;-75
2022/04/26 12:05:51;;;;;;;6.20;2.60;;;12.90;99.90;;;;;;5067630;28;20412;-76
2022/04/26 12:08:17;;;;;;;6.38;2.35;;;13.60;99.90;;;;;;5067861;28;20482;-74
2022/04/26 12:10:46;;;;;;;5.23;2.47;;;13.30;99.90;;;;;;5077475;28;20454;-75
2022/04/26 12:13:12;;;;;;;4.93;2.20;;;13.00;99.90;;;;;;5069984;28;20427;-74
2022/04/26 12:15:38;;;;;;;4.87;2.50;;;12.90;99.90;;;;;;5069583;28;20419;-76
2022/04/26 12:18:14;;;;;;;5.65;2.35;;;13.30;99.90;;;;;;5067737;28;20427;-74
2022/04/26 12:21:00;;;;;;;6.45;2.20;;;13.40;99.90;;;;;;5069352;28;20507;-78
2022/04/26 12:23:27;;;;;;;4.67;2.13;;;12.90;99.90;;;;;;5072982;28;20776;-74
2022/04/26 12:26:01;;;;;;;5.72;2.20;;;12.90;99.90;;;;;;5063635;28;20913;-75
2022/04/26 12:28:26;;;;;;;5.20;2.20;;;13.20;99.90;;;;;;5067925;28;20473;-75
2022/04/26 12:30:53;;;;;;;5.80;1.98;;;13.80;99.90;;;;;;5068141;28;20419;-75
2022/04/26 12:33:30;;;;;;;5.78;2.00;;;13.80;99.90;;;;;;5072117;28;20796;-75
2022/04/26 12:35:57;;;;;;;3.63;1.90;;;13.80;99.90;;;;;;5072465;28;20420;-75
2022/04/26 12:38:23;;;;;;;7.75;2.97;;;13.80;99.90;;;;;;5085053;28;20496;-75
2022/04/26 12:41:00;;;;;;;4.73;2.97;;;13.50;99.90;;;;;;5087487;28;20424;-74
2022/04/26 12:43:28;;;;;;;4.55;2.65;;;13.40;99.90;;;;;;5067625;28;20829;-72
2022/04/26 12:46:06;;;;;;;5.60;2.67;;;13.00;99.90;;;;;;5076380;28;20519;-73
2022/04/26 12:51:17;;;;;;;6.13;2.95;;;12.90;99.90;;;;;;5070913;28;20425;-73
2022/04/26 12:53:45;;;;;;;6.30;2.53;;;12.80;99.90;;;;;;5087713;28;20429;-73
2022/04/26 12:56:12;;;;;;;4.65;2.10;;;12.80;99.90;;;;;;5073898;28;20425;-73
2022/04/26 12:58:39;;;;;;;6.80;3.10;;;13.00;99.90;;;;;;5063064;28;20929;-73
2022/04/26 13:01:06;;;;;;;4.80;2.03;;;12.70;99.90;;;;;;5066028;28;20874;-73
2022/04/26 13:03:32;;;;;;;5.63;2.30;;;13.20;99.90;;;;;;5047033;28;20421;-73
2022/04/26 13:06:17;;;;;;;3.22;1.95;;;13.50;99.90;;;;;;5067122;28;20424;-72
2022/04/26 13:08:48;;;;;;;4.30;2.50;;;13.70;99.90;;;;;;5083773;28;20514;-74
2022/04/26 13:11:17;;;;;;;4.90;2.55;;;14.00;99.90;;;;;;5067977;28;20423;-74
2022/04/26 13:13:46;;;;;;;8.25;2.95;;;13.60;99.90;;;;;;5065755;28;20415;-73
2022/04/26 13:16:11;;;;;;;4.93;2.38;;;14.20;99.90;;;;;;5070864;28;20433;-74
2022/04/26 13:18:38;;;;;;;6.72;2.47;;;14.00;99.90;;;;;;5087342;28;20410;-73
2022/04/26 13:21:04;;;;;;;5.43;2.33;;;14.10;99.90;;;;;;5077741;28;20434;-74
2022/04/26 13:23:32;;;;;;;4.05;2.22;;;14.30;99.90;;;;;;5074704;28;20426;-74
2022/04/26 13:25:58;;;;;;;5.15;2.42;;;14.00;99.90;;;;;;5087557;28;20430;-72
2022/04/26 13:28:24;;;;;;;3.17;2.40;;;13.80;99.90;;;;;;5085925;28;20479;-72
2022/04/26 13:30:50;;;;;;;5.43;2.22;;;13.50;99.90;;;;;;5075985;28;20460;-71
2022/04/26 13:33:16;;;;;;;4.80;2.33;;;13.50;99.90;;;;;;5074573;28;20451;-71
2022/04/26 13:35:41;;;;;;;5.45;2.42;;;13.70;99.90;;;;;;5068472;28;20482;-73
2022/04/26 13:38:09;;;;;;;4.32;1.90;;;13.60;99.90;;;;;;5068625;28;20909;-71
2022/04/26 13:40:35;;;;;;;5.30;2.30;;;13.20;99.90;;;;;;5080228;28;20821;-72
2022/04/26 13:43:01;;;;;;;5.43;2.65;;;13.10;99.90;;;;;;5067965;28;20527;-73
2022/04/26 13:45:27;;;;;;;6.97;2.33;;;13.10;99.90;;;;;;5068790;28;20408;-72
2022/04/26 13:47:53;;;;;;;5.10;2.15;;;12.70;99.90;;;;;;5076454;28;20930;-71
2022/04/26 13:50:19;;;;;;;4.22;2.45;;;12.80;99.90;;;;;;5071694;28;20461;-72
2022/04/26 13:52:44;;;;;;;5.10;2.17;;;12.80;99.90;;;;;;5082301;28;20460;-73
2022/04/26 13:55:15;;;;;;;5.35;2.50;;;13.20;99.90;;;;;;5085003;28;20787;-73
2022/04/26 13:57:41;;;;;;;6.95;2.92;;;13.60;99.90;;;;;;5082533;28;20753;-74
2022/04/26 14:00:07;;;;;;;4.47;2.17;;;13.50;99.90;;;;;;5067005;28;20458;-72
2022/04/26 14:02:35;;;;;;;6.78;2.17;;;13.30;99.90;;;;;;5067567;28;20407;-72
2022/04/26 14:05:00;;;;;;;4.93;2.40;;;13.40;99.90;;;;;;5065887;28;20439;-73
2022/04/26 14:07:26;;;;;;;5.87;2.17;;;13.50;99.90;;;;;;5068106;28;20408;-73
2022/04/26 14:09:51;;;;;;;7.25;2.13;;;13.50;99.90;;;;;;5067954;28;20432;-73
2022/04/26 14:12:18;;;;;;;4.95;2.13;;;13.60;99.90;;;;;;5067734;28;20532;-73
2022/04/26 14:22:56;;;;;;;7.10;2.90;;;13.80;99.90;;;;;;5053699;28;20431;-72
2022/04/26 14:25:21;;;;;;;6.57;2.60;;;13.80;99.90;;;;;;5071280;28;20416;-72
2022/04/26 14:27:49;;;;;;;8.93;2.77;;;13.80;99.90;;;;;;5070230;28;20482;-73
2022/04/26 14:30:15;;;;;;;4.30;2.13;;;13.20;99.90;;;;;;5073681;28;20452;-71
2022/04/26 14:32:41;;;;;;;6.20;2.67;;;12.90;99.90;;;;;;5080294;28;21115;-74
2022/04/26 14:35:07;;;;;;;5.13;2.00;;;13.20;99.90;;;;;;5077284;28;20420;-73
2022/04/26 14:37:33;;;;;;;6.57;2.20;;;13.20;99.90;;;;;;5071352;28;20396;-72
2022/04/26 14:39:59;;;;;;;4.22;2.30;;;13.00;99.90;;;;;;5072262;28;20418;-72
2022/04/26 14:42:25;;;;;;;5.03;2.20;;;12.80;99.90;;;;;;5074233;28;20450;-73
2022/04/26 14:44:50;;;;;;;5.93;1.87;;;12.40;99.90;;;;;;5067243;28;20427;-73
2022/04/26 14:47:16;;;;;;;4.53;2.13;;;12.80;99.90;;;;;;5071017;28;20948;-71
2022/04/26 14:49:42;;;;;;;4.88;2.33;;;12.80;99.90;;;;;;5076448;28;20820;-72
2022/04/26 14:52:08;;;;;;;5.13;2.30;;;12.80;99.90;;;;;;5087605;28;20474;-73
2022/04/26 14:54:34;;;;;;;7.33;2.20;;;12.90;99.90;;;;;;5073351;28;20431;-73
2022/04/26 14:57:00;;;;;;;3.20;1.88;;;13.00;99.90;;;;;;5068757;28;20490;-73
2022/04/26 14:59:26;;;;;;;6.88;2.60;;;13.20;99.90;;;;;;5050303;28;20982;-73
2022/04/26 15:01:52;;;;;;;5.90;2.80;;;13.20;99.90;;;;;;5061038;28;20414;-74
2022/04/26 15:04:22;;;;;;;9.40;2.10;;;13.40;99.90;;;;;;5068411;28;20526;-73
2022/04/26 15:06:48;;;;;;;6.15;2.17;;;13.50;99.90;;;;;;5070828;28;20773;-73
2022/04/26 15:17:29;;;;;;;3.45;2.10;;;13.10;99.90;;;;;;5070829;28;20826;-74
2022/04/26 15:19:55;;;;;;;5.73;3.23;;;13.70;99.90;;;;;;5074885;28;20462;-74
2022/04/26 15:22:22;;;;;;;5.75;2.30;;;13.80;99.90;;;;;;5072711;28;20433;-76
2022/04/26 15:24:49;;;;;;;4.18;2.20;;;13.70;99.90;;;;;;5067628;28;20446;-75
2022/04/26 15:27:15;;;;;;;5.72;1.80;;;13.40;99.90;;;;;;5070195;28;20424;-75
2022/04/26 15:29:42;;;;;;;5.40;2.30;;;13.60;99.90;;;;;;5083532;28;20426;-74
2022/04/26 15:32:08;;;;;;;4.47;1.92;;;13.50;99.90;;;;;;5077197;28;20403;-74
2022/04/26 15:34:34;;;;;;;7.00;2.22;;;13.50;99.90;;;;;;5082399;28;20794;-74
2022/04/26 15:37:00;;;;;;;5.43;2.28;;;13.30;99.90;;;;;;5085118;28;20504;-73
2022/04/26 15:39:26;;;;;;;5.00;1.98;;;13.20;99.90;;;;;;5082805;28;20436;-73
2022/04/26 15:41:52;;;;;;;3.63;2.10;;;12.70;99.90;;;;;;5072332;28;20420;-74
2022/04/26 15:44:18;;;;;;;3.90;2.03;;;12.80;99.90;;;;;;5066074;28;20463;-71
2022/04/26 15:46:47;;;;;;;5.05;2.28;;;12.70;99.90;;;;;;5077108;28;20448;-74
2022/04/26 15:49:12;;;;;;;5.82;2.33;;;12.70;99.90;;;;;;5069494;28;20751;-73
2022/04/26 15:51:41;;;;;;;4.32;2.70;;;12.60;99.90;;;;;;5066999;28;20420;-73
2022/04/26 15:54:07;;;;;;;5.80;2.50;;;12.50;99.90;;;;;;5054599;28;20462;-74
2022/04/26 15:56:33;;;;;;;5.50;2.22;;;12.50;99.90;;;;;;5069763;28;20404;-75
2022/04/26 15:58:59;;;;;;;5.33;2.53;;;12.30;99.90;;;;;;5068726;28;20481;-74
2022/04/26 16:01:26;;;;;;;6.25;2.17;;;12.20;99.90;;;;;;5069082;28;20505;-74
2022/04/26 16:03:53;;;;;;;4.47;1.95;;;12.10;99.90;;;;;;5067032;28;20435;-74
2022/04/26 16:06:21;;;;;;;4.82;2.10;;;12.30;99.90;;;;;;5066601;28;20415;-74
2022/04/26 16:08:47;;;;;;;5.57;1.85;;;12.20;99.90;;;;;;5070834;28;20493;-74
2022/04/26 16:22:10;;;;;;;8.55;3.58;;;12.50;99.90;;;;;;5067135;28;20944;-75
2022/04/26 16:24:38;;;;;;;5.43;2.45;;;12.40;99.90;;;;;;5068124;28;20430;-75
2022/04/26 16:27:10;;;;;;;6.35;3.13;;;12.30;99.90;;;;;;5068753;28;20518;-75
2022/04/26 16:29:36;;;;;;;5.53;2.70;;;12.30;99.90;;;;;;5066967;28;20958;-74
2022/04/26 16:32:02;;;;;;;5.88;2.67;;;12.20;99.90;;;;;;5068295;28;20416;-74
2022/04/26 16:34:30;;;;;;;3.97;2.42;;;12.20;99.90;;;;;;5060931;28;20492;-74
2022/04/26 16:36:56;;;;;;;5.43;2.25;;;12.50;99.90;;;;;;5067886;28;20827;-75
2022/04/26 16:39:21;;;;;;;4.17;2.20;;;12.40;99.90;;;;;;5067827;28;20422;-74
2022/04/26 16:41:47;;;;;;;4.00;1.90;;;12.50;99.90;;;;;;5066213;28;20406;-72
2022/04/26 16:44:12;;;;;;;6.20;2.35;;;12.80;99.90;;;;;;5059830;28;20929;-74
2022/04/26 16:46:38;;;;;;;5.43;2.57;;;12.70;99.90;;;;;;5069213;28;20399;-73
2022/04/26 16:49:04;;;;;;;7.73;1.87;;;12.60;99.90;;;;;;5068300;28;20547;-74
2022/04/26 16:51:32;;;;;;;6.85;2.13;;;12.50;99.90;;;;;;5069232;28;20415;-74
2022/04/26 16:53:58;;;;;;;6.25;2.67;;;12.20;99.90;;;;;;5065565;28;20892;-74
2022/04/26 16:56:24;;;;;;;8.60;2.43;;;12.10;99.90;;;;;;5065348;28;20420;-72
2022/04/26 16:58:49;;;;;;;6.10;2.00;;;12.00;99.90;;;;;;5054665;28;20433;-74
2022/04/26 17:01:15;;;;;;;4.60;1.60;;;12.10;99.90;;;;;;5067197;28;20417;-74
2022/04/26 17:03:40;;;;;;;8.23;2.03;;;11.60;99.90;;;;;;5067924;28;20425;-75
2022/04/26 17:06:07;;;;;;;4.80;2.00;;;12.00;99.90;;;;;;5058549;28;20410;-74
2022/04/26 17:08:32;;;;;;;8.70;2.30;;;11.60;99.90;;;;;;5068765;28;20446;-74
2022/04/26 17:13:42;;;;;;;5.00;1.95;;;11.70;99.90;;;;;;5069527;28;20438;-74
2022/04/26 17:16:09;;;;;;;5.68;1.90;;;11.50;99.90;;;;;;5066331;28;20773;-74
2022/04/26 17:18:35;;;;;;;6.63;1.70;;;11.40;99.90;;;;;;5067480;28;20416;-75